Time;durP1;ratioP1;P1;durP2;ratioP2;P2;SDS_P1;SDS_P2;PMS_P1;PMS_P2;Temp;Humidity;BMP_temperature;BMP_pressure;BME280_temperature;BME280_humidity;BME280_pressure;Samples;Min_cycle;Max_cycle;Signal;HPM_P1;HPM_P2
2022/12/01 00:00:45;;;;;;;69.60;29.67;;;5.80;99.90;;;;;;5106738;28;20039;-84
2022/12/01 00:03:11;;;;;;;74.75;31.35;;;5.80;99.90;;;;;;5106665;28;20159;-84
2022/12/01 00:05:37;;;;;;;79.32;33.08;;;5.80;99.90;;;;;;5107677;28;20485;-84
2022/12/01 00:08:04;;;;;;;74.55;31.35;;;5.80;99.90;;;;;;5106841;28;20051;-84
2022/12/01 00:10:31;;;;;;;68.40;30.60;;;5.70;99.90;;;;;;5106954;28;20093;-84
2022/12/01 00:13:00;;;;;;;66.40;29.20;;;5.70;99.90;;;;;;5106623;28;20044;-84
2022/12/01 00:15:34;;;;;;;68.20;31.50;;;5.70;99.90;;;;;;5105005;28;20055;-84
2022/12/01 00:18:00;;;;;;;69.00;31.13;;;5.80;99.90;;;;;;5107135;28;20402;-84
2022/12/01 00:20:27;;;;;;;77.10;31.42;;;5.70;99.90;;;;;;5091966;28;20474;-84
2022/12/01 00:22:52;;;;;;;76.05;31.60;;;5.70;99.90;;;;;;5102650;28;20043;-84
2022/12/01 00:25:19;;;;;;;72.55;32.05;;;5.70;99.90;;;;;;5105866;28;20050;-84
2022/12/01 00:27:49;;;;;;;80.80;32.00;;;5.70;99.90;;;;;;5106794;28;20082;-84
2022/12/01 00:30:15;;;;;;;71.28;31.23;;;5.70;99.90;;;;;;5094163;28;20473;-85
2022/12/01 00:32:41;;;;;;;70.65;30.08;;;5.90;99.90;;;;;;5103460;28;20055;-84
2022/12/01 00:35:07;;;;;;;76.57;30.65;;;5.60;99.90;;;;;;5104450;28;20470;-84
2022/12/01 00:37:33;;;;;;;71.60;30.95;;;5.80;99.90;;;;;;5101660;28;20104;-84
2022/12/01 00:40:00;;;;;;;69.25;31.58;;;5.90;99.90;;;;;;5106452;28;20473;-84
2022/12/01 00:42:26;;;;;;;71.00;28.73;;;5.70;99.90;;;;;;5105160;28;20669;-84
2022/12/01 00:44:51;;;;;;;73.72;31.73;;;5.60;99.90;;;;;;5107186;28;20032;-85
2022/12/01 00:47:17;;;;;;;75.63;31.63;;;5.70;99.90;;;;;;5105398;28;20051;-84
2022/12/01 00:49:44;;;;;;;74.05;31.17;;;5.80;99.90;;;;;;5106775;28;20146;-84
2022/12/01 00:52:13;;;;;;;74.90;32.15;;;5.70;99.90;;;;;;5104056;28;20060;-84
2022/12/01 00:54:39;;;;;;;72.28;30.15;;;5.70;99.90;;;;;;5107393;28;20088;-84
2022/12/01 00:57:05;;;;;;;65.13;29.33;;;5.70;99.90;;;;;;5105567;28;20392;-84
2022/12/01 00:59:31;;;;;;;74.00;30.80;;;5.60;99.90;;;;;;5104370;28;20043;-84
2022/12/01 01:01:56;;;;;;;73.72;31.17;;;5.50;99.90;;;;;;5123693;28;20044;-84
2022/12/01 01:04:22;;;;;;;79.13;32.80;;;5.60;99.90;;;;;;5085642;28;20045;-84
2022/12/01 01:06:48;;;;;;;71.57;31.55;;;5.60;99.90;;;;;;5098488;28;20054;-84
2022/12/01 01:09:16;;;;;;;70.05;30.67;;;5.70;99.90;;;;;;5105110;28;20050;-84
2022/12/01 01:11:42;;;;;;;70.57;30.90;;;5.60;99.90;;;;;;5107092;28;20046;-85
2022/12/01 01:14:07;;;;;;;70.72;30.83;;;5.60;99.90;;;;;;5106141;28;20043;-85
2022/12/01 01:16:34;;;;;;;72.65;31.33;;;5.70;99.90;;;;;;5107306;28;20080;-84
2022/12/01 01:19:00;;;;;;;66.82;30.60;;;5.70;99.90;;;;;;5103521;28;20063;-84
2022/12/01 01:21:26;;;;;;;71.63;31.85;;;5.80;99.90;;;;;;5096902;28;20107;-84
2022/12/01 01:23:53;;;;;;;67.22;28.63;;;5.70;99.90;;;;;;5110844;28;20043;-85
2022/12/01 01:26:24;;;;;;;69.80;31.15;;;5.60;99.90;;;;;;5107667;28;20121;-84
2022/12/01 01:28:51;;;;;;;69.03;30.00;;;5.80;99.90;;;;;;5108898;28;20121;-85
2022/12/01 01:31:20;;;;;;;69.55;29.85;;;5.60;99.90;;;;;;5109977;28;20886;-85
2022/12/01 01:33:46;;;;;;;68.32;29.92;;;5.90;99.90;;;;;;5111080;28;20043;-85
2022/12/01 01:36:13;;;;;;;68.65;30.92;;;5.70;99.90;;;;;;5108815;28;20068;-84
2022/12/01 01:38:38;;;;;;;67.30;30.25;;;5.70;99.90;;;;;;5108664;28;20082;-84
2022/12/01 01:41:06;;;;;;;67.57;29.60;;;5.70;99.90;;;;;;5108871;28;20071;-84
2022/12/01 01:43:44;;;;;;;66.28;30.30;;;5.70;99.90;;;;;;5110524;28;20047;-85
2022/12/01 01:46:21;;;;;;;70.75;32.10;;;5.80;99.90;;;;;;5108978;28;20046;-84
2022/12/01 01:48:59;;;;;;;66.95;29.88;;;5.70;99.90;;;;;;5109778;28;20043;-84
2022/12/01 01:51:45;;;;;;;71.88;30.60;;;5.70;99.90;;;;;;5110872;28;20454;-85
2022/12/01 01:54:16;;;;;;;74.25;30.30;;;5.70;99.90;;;;;;5108518;28;20127;-84
2022/12/01 01:56:47;;;;;;;70.13;30.25;;;5.70;99.90;;;;;;5110769;28;20036;-84
2022/12/01 01:59:19;;;;;;;65.80;30.73;;;5.60;99.90;;;;;;5108035;28;20473;-85
2022/12/01 02:01:51;;;;;;;65.70;29.02;;;5.70;99.90;;;;;;5109597;28;20047;-83
2022/12/01 02:04:18;;;;;;;70.63;32.83;;;5.70;99.90;;;;;;5089466;28;20574;-85
2022/12/01 02:06:44;;;;;;;69.07;31.33;;;5.70;99.90;;;;;;5092530;28;20445;-84
2022/12/01 02:09:11;;;;;;;69.80;32.17;;;5.70;99.90;;;;;;5104478;28;20127;-84
2022/12/01 02:11:59;;;;;;;74.60;32.97;;;5.70;99.90;;;;;;5109041;28;20051;-84
2022/12/01 02:15:00;;;;;;;71.88;32.45;;;5.80;99.90;;;;;;5125672;27;20578;-85
2022/12/01 02:17:54;;;;;;;71.25;32.08;;;5.80;99.90;;;;;;5108052;28;20660;-85
2022/12/01 02:20:26;;;;;;;73.05;31.95;;;5.80;99.90;;;;;;5107868;28;20083;-85
2022/12/01 02:23:21;;;;;;;66.93;30.92;;;5.70;99.90;;;;;;5107226;28;20058;-85
2022/12/01 02:26:15;;;;;;;65.13;31.30;;;6.10;99.90;;;;;;5089669;28;20044;-83
2022/12/01 02:29:08;;;;;;;65.95;29.83;;;5.70;99.90;;;;;;5103419;28;20494;-84
2022/12/01 02:31:56;;;;;;;72.60;31.77;;;5.60;99.90;;;;;;5110480;28;20048;-84
2022/12/01 02:34:33;;;;;;;65.93;30.70;;;6.50;99.90;;;;;;5109244;28;20439;-84
2022/12/01 02:37:19;;;;;;;73.28;31.50;;;5.70;99.90;;;;;;5088051;28;20147;-84
2022/12/01 02:40:01;;;;;;;67.53;31.00;;;5.70;99.90;;;;;;5107736;28;20062;-84
2022/12/01 02:42:48;;;;;;;68.03;30.60;;;5.70;99.90;;;;;;5106507;28;20047;-84
2022/12/01 02:45:20;;;;;;;71.43;32.38;;;5.70;99.90;;;;;;5108527;28;20071;-84
2022/12/01 02:47:46;;;;;;;67.53;32.60;;;5.70;99.90;;;;;;5104729;28;20050;-84
2022/12/01 02:50:12;;;;;;;68.10;32.33;;;5.60;99.90;;;;;;5107923;28;20043;-85
2022/12/01 02:52:39;;;;;;;69.53;32.80;;;5.70;99.90;;;;;;5107876;28;20039;-84
2022/12/01 02:55:05;;;;;;;69.60;32.85;;;5.60;99.90;;;;;;5103084;28;20040;-84
2022/12/01 02:57:31;;;;;;;66.95;32.20;;;5.90;99.90;;;;;;5106513;28;20108;-84
2022/12/01 02:59:58;;;;;;;69.88;32.38;;;5.70;99.90;;;;;;5107479;28;20327;-84
2022/12/01 03:02:41;;;;;;;63.30;31.05;;;5.70;99.90;;;;;;5090026;28;20108;-84
2022/12/01 03:05:21;;;;;;;65.18;32.95;;;5.60;99.90;;;;;;5108191;28;20716;-84
2022/12/01 03:07:56;;;;;;;69.63;31.92;;;5.70;99.90;;;;;;5089857;28;20043;-84
2022/12/01 03:10:27;;;;;;;67.88;32.42;;;5.80;99.90;;;;;;5089510;28;20398;-85
2022/12/01 03:13:00;;;;;;;66.40;32.42;;;5.70;99.90;;;;;;5086985;28;20046;-84
2022/12/01 03:15:32;;;;;;;64.20;32.58;;;5.60;99.90;;;;;;5104043;28;20066;-84
2022/12/01 03:18:26;;;;;;;71.78;32.88;;;5.70;99.90;;;;;;5106942;28;20079;-84
2022/12/01 03:21:01;;;;;;;65.55;31.70;;;5.70;99.90;;;;;;5107965;28;20055;-84
2022/12/01 03:23:30;;;;;;;63.58;31.13;;;5.60;99.90;;;;;;5108139;28;20404;-85
2022/12/01 03:25:59;;;;;;;65.35;32.08;;;5.60;99.90;;;;;;5106993;28;20537;-84
2022/12/01 03:28:29;;;;;;;69.05;32.53;;;5.70;99.90;;;;;;5108622;28;20051;-84
2022/12/01 03:31:00;;;;;;;69.70;32.55;;;5.40;99.90;;;;;;5107888;28;20048;-85
2022/12/01 03:33:31;;;;;;;66.55;32.17;;;5.60;99.90;;;;;;5107659;28;20126;-84
2022/12/01 03:36:15;;;;;;;69.80;33.22;;;5.60;99.90;;;;;;5109044;28;20055;-85
2022/12/01 03:38:47;;;;;;;65.80;31.35;;;5.80;99.90;;;;;;5106352;28;20071;-85
2022/12/01 03:41:18;;;;;;;65.43;31.55;;;5.50;99.90;;;;;;5107756;28;20093;-84
2022/12/01 03:43:55;;;;;;;68.68;32.15;;;5.50;99.90;;;;;;5107191;28;20055;-84
2022/12/01 03:46:34;;;;;;;68.15;31.00;;;5.70;99.90;;;;;;5107291;28;20047;-85
2022/12/01 03:49:00;;;;;;;69.53;30.50;;;5.60;99.90;;;;;;5098028;28;20073;-84
2022/12/01 03:51:48;;;;;;;70.40;32.63;;;5.60;99.90;;;;;;5087405;28;20139;-84
2022/12/01 03:54:36;;;;;;;63.40;31.42;;;5.70;99.90;;;;;;5107007;28;20043;-85
2022/12/01 03:57:07;;;;;;;68.20;33.08;;;5.70;99.90;;;;;;5106920;28;20512;-84
2022/12/01 03:59:35;;;;;;;67.28;32.55;;;5.60;99.90;;;;;;5106360;28;20562;-84
2022/12/01 04:02:01;;;;;;;63.40;32.67;;;5.50;99.90;;;;;;5107854;28;20047;-85
2022/12/01 04:04:26;;;;;;;67.78;33.15;;;5.60;99.90;;;;;;5108083;28;20050;-84
2022/12/01 04:06:52;;;;;;;73.68;33.35;;;5.60;99.90;;;;;;5107480;28;20377;-85
2022/12/01 04:09:18;;;;;;;63.22;30.48;;;5.50;99.90;;;;;;5106276;28;20766;-84
2022/12/01 04:14:29;;;;;;;68.55;33.38;;;5.60;99.90;;;;;;5108377;28;20043;-84
2022/12/01 04:16:54;;;;;;;70.40;32.70;;;5.60;99.90;;;;;;5106162;28;20050;-84
2022/12/01 04:19:20;;;;;;;66.57;31.50;;;5.40;99.90;;;;;;5106225;28;20150;-84
2022/12/01 04:21:45;;;;;;;65.82;32.10;;;5.50;99.90;;;;;;5107158;28;20131;-84
2022/12/01 04:24:12;;;;;;;70.13;32.33;;;5.60;99.90;;;;;;5106272;28;20407;-84
2022/12/01 04:26:38;;;;;;;65.25;31.20;;;5.60;99.90;;;;;;5107932;28;20047;-85
2022/12/01 04:29:08;;;;;;;67.28;32.28;;;5.40;99.90;;;;;;5106092;28;20054;-84
2022/12/01 04:31:33;;;;;;;69.47;31.95;;;5.50;99.90;;;;;;5091203;28;20044;-84
2022/12/01 04:34:00;;;;;;;65.65;31.92;;;5.40;99.90;;;;;;5103531;28;20191;-85
2022/12/01 04:36:28;;;;;;;62.80;31.42;;;5.50;99.90;;;;;;5108272;28;20054;-85
2022/12/01 04:38:53;;;;;;;68.07;33.72;;;5.50;99.90;;;;;;5104904;28;20047;-85
2022/12/01 04:41:19;;;;;;;71.38;32.80;;;5.30;99.90;;;;;;5107188;28;20714;-84
2022/12/01 04:43:45;;;;;;;71.05;32.08;;;5.30;99.90;;;;;;5107489;28;20127;-84
2022/12/01 04:46:10;;;;;;;65.53;31.80;;;5.50;99.90;;;;;;5104595;28;20050;-84
2022/12/01 04:48:37;;;;;;;69.13;32.58;;;5.50;99.90;;;;;;5104787;28;20032;-85
2022/12/01 04:51:04;;;;;;;67.82;31.58;;;5.30;99.90;;;;;;5106726;28;20051;-84
2022/12/01 04:53:30;;;;;;;64.40;31.38;;;5.60;99.90;;;;;;5108978;28;20070;-84
2022/12/01 04:56:01;;;;;;;72.93;34.22;;;5.50;99.90;;;;;;5109405;28;20497;-85
2022/12/01 04:58:31;;;;;;;72.93;34.55;;;5.60;99.90;;;;;;5108309;28;20047;-85
2022/12/01 05:01:02;;;;;;;70.38;33.15;;;5.50;99.90;;;;;;5109710;28;20494;-84
2022/12/01 05:03:28;;;;;;;69.53;32.33;;;5.50;99.90;;;;;;5108666;28;20108;-84
2022/12/01 05:06:05;;;;;;;77.32;34.50;;;5.30;99.90;;;;;;5109260;28;20047;-85
2022/12/01 05:08:30;;;;;;;70.07;33.10;;;5.50;99.90;;;;;;5109189;28;20047;-84
2022/12/01 05:10:56;;;;;;;67.50;32.78;;;5.50;99.90;;;;;;5109147;28;20039;-84
2022/12/01 05:13:22;;;;;;;70.10;34.40;;;5.40;99.90;;;;;;5109152;28;20833;-84
2022/12/01 05:15:50;;;;;;;70.80;33.90;;;5.50;99.90;;;;;;5110406;28;20051;-85
2022/12/01 05:18:16;;;;;;;69.90;33.95;;;5.40;99.90;;;;;;5109419;28;20047;-84
2022/12/01 05:20:56;;;;;;;72.82;34.22;;;5.40;99.90;;;;;;5108884;28;20391;-84
2022/12/01 05:23:27;;;;;;;75.60;34.80;;;5.40;99.90;;;;;;5109426;28;20048;-84
2022/12/01 05:25:53;;;;;;;70.78;33.33;;;5.40;99.90;;;;;;5108720;28;20083;-85
2022/12/01 05:28:20;;;;;;;78.25;34.33;;;5.50;99.90;;;;;;5109352;28;20054;-85
2022/12/01 05:30:45;;;;;;;69.82;35.13;;;5.50;99.90;;;;;;5109705;28;20044;-84
2022/12/01 05:33:11;;;;;;;74.45;34.05;;;5.50;99.90;;;;;;5106847;28;20069;-84
2022/12/01 05:35:37;;;;;;;74.70;33.00;;;5.40;99.90;;;;;;5110787;28;20075;-84
2022/12/01 05:38:03;;;;;;;81.50;35.08;;;5.40;99.90;;;;;;5109880;28;20901;-84
2022/12/01 05:40:29;;;;;;;73.60;34.67;;;5.40;99.90;;;;;;5110085;28;20587;-84
2022/12/01 05:42:56;;;;;;;77.20;35.75;;;5.10;99.90;;;;;;5109081;28;20039;-84
2022/12/01 05:45:22;;;;;;;66.40;32.08;;;5.40;99.90;;;;;;5110158;28;20039;-84
2022/12/01 05:47:47;;;;;;;76.68;35.00;;;5.30;99.90;;;;;;5109423;28;20382;-84
2022/12/01 05:50:13;;;;;;;86.65;36.88;;;5.40;99.90;;;;;;5109200;28;20477;-84
2022/12/01 05:52:39;;;;;;;81.00;37.08;;;5.50;99.90;;;;;;5108855;28;20861;-85
2022/12/01 05:55:05;;;;;;;84.15;34.97;;;5.30;99.90;;;;;;5100558;28;20405;-84
2022/12/01 05:57:32;;;;;;;78.70;34.78;;;5.40;99.90;;;;;;5121635;27;20513;-85
2022/12/01 05:59:58;;;;;;;78.30;36.42;;;5.40;99.90;;;;;;5109245;28;20154;-85
2022/12/01 06:02:25;;;;;;;81.07;36.90;;;5.30;99.90;;;;;;5091578;28;20048;-85
2022/12/01 06:04:52;;;;;;;79.20;36.17;;;5.40;99.90;;;;;;5108120;28;20100;-84
2022/12/01 06:07:18;;;;;;;81.18;36.88;;;5.40;99.90;;;;;;5106448;28;20058;-85
2022/12/01 06:09:45;;;;;;;87.80;37.90;;;5.40;99.90;;;;;;5109586;28;20050;-85
2022/12/01 06:12:11;;;;;;;82.05;37.95;;;5.50;99.90;;;;;;5108442;28;20077;-85
2022/12/01 06:14:37;;;;;;;82.03;36.33;;;5.40;99.90;;;;;;5092741;28;20097;-84
2022/12/01 06:17:03;;;;;;;77.68;35.50;;;5.30;99.90;;;;;;5108472;28;20043;-84
2022/12/01 06:19:30;;;;;;;85.07;34.72;;;5.20;99.90;;;;;;5107839;28;20070;-84
2022/12/01 06:21:55;;;;;;;80.95;34.10;;;5.40;99.90;;;;;;5107154;28;20050;-84
2022/12/01 06:24:21;;;;;;;78.35;34.17;;;5.40;99.90;;;;;;5108553;28;20047;-85
2022/12/01 06:26:47;;;;;;;80.97;35.83;;;5.40;99.90;;;;;;5106525;28;20508;-85
2022/12/01 06:29:12;;;;;;;80.45;35.80;;;5.40;99.90;;;;;;5109176;28;20154;-86
2022/12/01 06:31:38;;;;;;;81.65;37.22;;;5.40;99.90;;;;;;5108825;28;20044;-85
2022/12/01 06:34:03;;;;;;;82.38;36.72;;;5.40;99.90;;;;;;5110696;28;20052;-86
2022/12/01 06:36:29;;;;;;;77.03;35.17;;;5.40;99.90;;;;;;5105168;28;20149;-86
2022/12/01 06:38:55;;;;;;;79.15;35.03;;;5.40;99.90;;;;;;5126357;27;20047;-85
2022/12/01 06:41:22;;;;;;;81.88;35.03;;;5.50;99.90;;;;;;5100650;27;20042;-86
2022/12/01 06:43:48;;;;;;;83.97;35.78;;;5.50;99.90;;;;;;5101693;28;20484;-85
2022/12/01 06:46:13;;;;;;;81.28;35.95;;;5.50;99.90;;;;;;5108514;28;20122;-85
2022/12/01 06:48:39;;;;;;;83.95;35.60;;;5.50;99.90;;;;;;5109059;28;20134;-85
2022/12/01 06:51:05;;;;;;;72.18;32.75;;;5.50;99.90;;;;;;5108558;28;20813;-85
2022/12/01 06:53:30;;;;;;;78.78;34.92;;;5.50;99.90;;;;;;5108730;28;20090;-85
2022/12/01 06:56:00;;;;;;;76.95;36.67;;;5.50;99.90;;;;;;5108615;28;20040;-85
2022/12/01 06:58:26;;;;;;;79.20;35.20;;;5.50;99.90;;;;;;5109163;28;20043;-85
2022/12/01 07:00:52;;;;;;;78.25;34.38;;;5.50;99.90;;;;;;5083130;28;20133;-84
2022/12/01 07:03:17;;;;;;;79.38;35.95;;;5.40;99.90;;;;;;5107789;28;20055;-85
2022/12/01 07:05:43;;;;;;;72.20;33.38;;;5.50;99.90;;;;;;5108799;28;20056;-84
2022/12/01 07:08:09;;;;;;;76.18;34.42;;;5.50;99.90;;;;;;5091476;28;20482;-85
2022/12/01 07:10:34;;;;;;;79.15;36.05;;;5.50;99.90;;;;;;5109617;28;20048;-85
2022/12/01 07:13:00;;;;;;;82.50;36.30;;;5.40;99.90;;;;;;5108172;28;20043;-85
2022/12/01 07:15:27;;;;;;;77.25;36.55;;;5.50;99.90;;;;;;5106104;28;20130;-85
2022/12/01 07:17:53;;;;;;;81.25;35.38;;;5.40;99.90;;;;;;5108121;28;20713;-85
2022/12/01 07:20:18;;;;;;;84.18;36.45;;;5.40;99.90;;;;;;5091310;28;20112;-84
2022/12/01 07:22:44;;;;;;;81.00;35.42;;;5.40;99.90;;;;;;5107293;28;20055;-85
2022/12/01 07:25:09;;;;;;;77.38;34.47;;;5.40;99.90;;;;;;5107582;28;20751;-84
2022/12/01 07:27:35;;;;;;;73.88;32.67;;;5.40;99.90;;;;;;5099579;27;20093;-84
2022/12/01 07:30:01;;;;;;;76.68;34.17;;;5.40;99.90;;;;;;5105942;28;20040;-83
2022/12/01 07:32:26;;;;;;;83.28;34.95;;;5.50;99.90;;;;;;5090356;28;20063;-83
2022/12/01 07:34:52;;;;;;;74.15;34.17;;;5.40;99.90;;;;;;5107678;28;20088;-84
2022/12/01 07:37:18;;;;;;;78.93;35.05;;;5.50;99.90;;;;;;5109097;28;20050;-84
2022/12/01 07:39:43;;;;;;;77.93;36.10;;;5.40;99.90;;;;;;5107870;28;20075;-85
2022/12/01 07:42:09;;;;;;;81.05;37.33;;;5.50;99.90;;;;;;5107325;28;20059;-84
2022/12/01 07:44:34;;;;;;;79.75;36.70;;;5.50;99.90;;;;;;5108591;28;20043;-84
2022/12/01 07:47:00;;;;;;;79.97;36.33;;;5.50;99.90;;;;;;5108996;28;20073;-85
2022/12/01 07:49:25;;;;;;;81.53;36.70;;;5.50;99.90;;;;;;5105882;28;20051;-85
2022/12/01 07:51:51;;;;;;;78.00;35.88;;;5.80;99.90;;;;;;5106273;28;20932;-85
2022/12/01 07:54:19;;;;;;;83.57;35.67;;;5.50;99.90;;;;;;5108816;28;20413;-85
2022/12/01 07:56:44;;;;;;;86.50;38.45;;;5.50;99.90;;;;;;5107372;28;20090;-86
2022/12/01 07:59:11;;;;;;;82.82;37.33;;;5.50;99.90;;;;;;5105836;28;20074;-86
2022/12/01 08:01:37;;;;;;;81.13;36.63;;;5.50;99.90;;;;;;5107469;28;20056;-84
2022/12/01 08:04:02;;;;;;;81.80;35.20;;;5.50;99.90;;;;;;5104464;28;20058;-85
2022/12/01 08:06:29;;;;;;;86.32;36.67;;;5.50;99.90;;;;;;5091895;28;20095;-85
2022/12/01 08:08:55;;;;;;;78.28;33.78;;;5.50;99.90;;;;;;5099681;28;20050;-85
2022/12/01 08:11:25;;;;;;;83.60;37.30;;;5.50;99.90;;;;;;5106857;28;20421;-85
2022/12/01 08:13:52;;;;;;;81.07;36.00;;;5.50;99.90;;;;;;5107916;28;20436;-85
2022/12/01 08:16:20;;;;;;;83.13;36.60;;;5.50;99.90;;;;;;5106979;28;20083;-86
2022/12/01 08:18:49;;;;;;;82.97;35.55;;;5.50;99.90;;;;;;5107499;28;20184;-86
2022/12/01 08:21:18;;;;;;;81.53;34.25;;;5.60;99.90;;;;;;5107154;28;20079;-85
2022/12/01 08:23:44;;;;;;;86.63;35.83;;;5.60;99.90;;;;;;5108840;28;20086;-84
2022/12/01 08:26:15;;;;;;;80.13;36.40;;;5.60;99.90;;;;;;5105962;28;20075;-84
2022/12/01 08:28:42;;;;;;;79.28;35.10;;;5.60;99.90;;;;;;5106292;28;20035;-84
2022/12/01 08:31:22;;;;;;;76.18;34.83;;;5.60;99.90;;;;;;5106517;28;20051;-85
2022/12/01 08:33:49;;;;;;;74.97;32.15;;;5.60;99.90;;;;;;5107371;28;20468;-85
2022/12/01 08:36:15;;;;;;;80.80;35.10;;;5.70;99.90;;;;;;5106939;28;20043;-85
2022/12/01 08:38:45;;;;;;;79.50;34.08;;;5.70;99.90;;;;;;5106856;28;20063;-86
2022/12/01 08:41:11;;;;;;;74.00;34.17;;;5.70;99.90;;;;;;5106187;28;20035;-86
2022/12/01 08:43:41;;;;;;;72.32;32.03;;;5.70;99.90;;;;;;5108024;28;20101;-85
2022/12/01 08:46:07;;;;;;;76.65;33.40;;;5.80;99.90;;;;;;5106564;28;20043;-86
2022/12/01 08:48:34;;;;;;;77.43;34.20;;;5.80;99.90;;;;;;5107119;28;20143;-85
2022/12/01 08:51:12;;;;;;;71.85;34.25;;;5.80;99.90;;;;;;5106379;28;20052;-85
2022/12/01 08:53:40;;;;;;;72.00;33.55;;;5.80;99.90;;;;;;5106374;28;20048;-85
2022/12/01 08:56:11;;;;;;;74.18;33.45;;;5.90;99.90;;;;;;5106700;28;20104;-85
2022/12/01 08:58:37;;;;;;;79.78;34.95;;;5.90;99.90;;;;;;5086074;28;20584;-85
2022/12/01 09:01:06;;;;;;;78.40;34.05;;;5.90;99.90;;;;;;5097647;28;20047;-85
2022/12/01 09:03:32;;;;;;;72.97;33.22;;;6.70;99.90;;;;;;5106091;28;20462;-86
2022/12/01 09:06:04;;;;;;;81.40;35.47;;;6.00;99.90;;;;;;5106603;28;20486;-84
2022/12/01 09:08:30;;;;;;;75.50;34.40;;;6.00;99.90;;;;;;5089928;28;20052;-85
2022/12/01 09:10:56;;;;;;;74.88;33.13;;;6.00;99.90;;;;;;5106264;28;20044;-85
2022/12/01 09:13:21;;;;;;;77.95;33.92;;;6.00;99.90;;;;;;5107274;28;20475;-85
2022/12/01 09:15:55;;;;;;;71.72;33.28;;;6.10;99.90;;;;;;5089678;28;20044;-85
2022/12/01 09:18:20;;;;;;;78.25;34.53;;;6.10;99.90;;;;;;5107833;28;20048;-85
2022/12/01 09:20:46;;;;;;;73.55;34.35;;;6.10;99.90;;;;;;5089252;28;20046;-85
2022/12/01 09:23:12;;;;;;;76.15;33.67;;;6.10;99.90;;;;;;5106319;28;20131;-85
2022/12/01 09:25:37;;;;;;;67.55;32.42;;;6.10;99.90;;;;;;5105487;28;20051;-86
2022/12/01 09:28:03;;;;;;;77.68;34.30;;;6.10;99.90;;;;;;5106614;28;20101;-85
2022/12/01 09:30:28;;;;;;;70.50;33.10;;;6.10;99.90;;;;;;5106751;28;20050;-85
2022/12/01 09:32:54;;;;;;;77.47;34.42;;;6.10;99.90;;;;;;5106916;28;20062;-85
2022/12/01 09:35:19;;;;;;;71.43;34.20;;;6.20;99.90;;;;;;5106453;28;20039;-85
2022/12/01 09:37:45;;;;;;;73.28;34.10;;;6.20;99.90;;;;;;5105385;28;20039;-85
2022/12/01 09:40:13;;;;;;;74.07;33.42;;;6.20;99.90;;;;;;5109610;28;20044;-85
2022/12/01 09:42:40;;;;;;;84.13;33.10;;;6.20;99.90;;;;;;5109735;28;20123;-85
2022/12/01 09:45:10;;;;;;;69.25;32.05;;;6.30;99.90;;;;;;5109911;28;20047;-83
2022/12/01 09:47:37;;;;;;;70.93;32.63;;;6.40;99.90;;;;;;5109117;28;20104;-85
2022/12/01 09:50:14;;;;;;;69.00;31.98;;;6.20;99.90;;;;;;5107383;27;20066;-85
2022/12/01 09:53:15;;;;;;;70.22;31.83;;;6.40;99.90;;;;;;5113169;27;20051;-84
2022/12/01 09:55:40;;;;;;;68.63;28.95;;;6.30;99.90;;;;;;5097622;27;20048;-84
2022/12/01 09:58:15;;;;;;;67.40;31.58;;;6.40;99.90;;;;;;5123521;27;20148;-84
2022/12/01 10:00:42;;;;;;;65.50;31.25;;;6.40;99.90;;;;;;5107055;28;20400;-84
2022/12/01 10:03:08;;;;;;;65.40;31.15;;;6.30;99.90;;;;;;5089837;28;20056;-84
2022/12/01 10:05:45;;;;;;;64.40;30.80;;;8.20;99.90;;;;;;5105944;28;20082;-83
2022/12/01 10:08:15;;;;;;;65.57;31.02;;;7.10;99.90;;;;;;5106645;27;20074;-85
2022/12/01 10:10:47;;;;;;;63.00;30.33;;;7.00;99.90;;;;;;5090124;28;20569;-85
2022/12/01 10:13:24;;;;;;;60.60;29.05;;;6.30;99.90;;;;;;5110915;27;20047;-85
2022/12/01 10:15:53;;;;;;;63.50;30.02;;;6.50;99.90;;;;;;5109736;28;20079;-85
2022/12/01 10:18:24;;;;;;;64.65;31.13;;;6.60;99.90;;;;;;5109065;28;20144;-85
2022/12/01 10:21:13;;;;;;;57.90;27.83;;;6.60;99.90;;;;;;5090988;28;20050;-84
2022/12/01 10:23:47;;;;;;;57.03;27.23;;;6.70;99.90;;;;;;5106934;28;20083;-84
2022/12/01 10:26:18;;;;;;;59.00;28.63;;;6.70;99.90;;;;;;5108862;28;20044;-84
2022/12/01 10:29:01;;;;;;;56.58;28.23;;;6.80;99.90;;;;;;5090151;28;20048;-85
2022/12/01 10:31:53;;;;;;;61.38;29.80;;;6.80;99.90;;;;;;5089380;28;20493;-86
2022/12/01 10:34:26;;;;;;;60.30;30.20;;;6.70;99.90;;;;;;5089001;28;20132;-84
2022/12/01 10:36:52;;;;;;;65.65;32.55;;;6.60;99.90;;;;;;5101658;28;20043;-85
2022/12/01 10:39:39;;;;;;;59.53;29.23;;;6.70;99.90;;;;;;5091059;28;20040;-84
2022/12/01 10:42:26;;;;;;;65.68;29.75;;;6.60;99.90;;;;;;5090994;28;20047;-86
2022/12/01 10:44:58;;;;;;;54.83;27.98;;;6.80;99.90;;;;;;5108676;28;20051;-83
2022/12/01 10:47:25;;;;;;;57.15;27.27;;;7.00;99.90;;;;;;5109603;28;20682;-83
2022/12/01 10:49:51;;;;;;;55.58;27.98;;;6.60;99.90;;;;;;5107503;28;20043;-83
2022/12/01 10:52:36;;;;;;;62.10;27.88;;;6.90;99.90;;;;;;5091624;28;20052;-82
2022/12/01 10:55:27;;;;;;;53.90;27.95;;;7.00;99.90;;;;;;5107881;28;20085;-83
2022/12/01 10:57:58;;;;;;;59.33;29.08;;;7.10;99.90;;;;;;5107287;28;20043;-83
2022/12/01 11:00:32;;;;;;;57.90;28.10;;;7.00;99.90;;;;;;5108474;28;20488;-83
2022/12/01 11:02:57;;;;;;;58.80;26.45;;;6.90;99.90;;;;;;5108416;28;20071;-83
2022/12/01 11:05:26;;;;;;;57.97;27.30;;;8.00;99.90;;;;;;5091607;28;20067;-83
2022/12/01 11:07:53;;;;;;;62.88;29.00;;;6.90;99.90;;;;;;5089747;28;20044;-83
2022/12/01 11:10:25;;;;;;;52.40;26.58;;;6.80;99.90;;;;;;5108402;28;20047;-83
2022/12/01 11:12:54;;;;;;;;;;;7.10;99.90;;;;;;5108018;28;20108;-83
2022/12/01 11:15:33;;;;;;;54.17;26.30;;;6.80;99.90;;;;;;5080884;28;19923;-86
2022/12/01 11:18:04;;;;;;;57.40;27.20;;;7.00;99.90;;;;;;5105022;27;20035;-84
2022/12/01 11:20:36;;;;;;;51.22;27.35;;;7.10;99.90;;;;;;5128633;27;20066;-85
2022/12/01 11:23:17;;;;;;;51.63;26.42;;;7.00;99.90;;;;;;5088710;28;20040;-84
2022/12/01 11:25:56;;;;;;;52.00;25.60;;;6.80;99.90;;;;;;5098138;27;20043;-84
2022/12/01 11:28:22;;;;;;;47.67;26.02;;;6.90;99.90;;;;;;5109294;27;20112;-84
2022/12/01 11:30:56;;;;;;;51.35;26.27;;;7.00;99.90;;;;;;5109648;27;20484;-84
2022/12/01 11:33:22;;;;;;;52.40;27.42;;;7.90;99.90;;;;;;5109002;27;20144;-86
2022/12/01 11:35:48;;;;;;;50.80;25.02;;;6.90;99.90;;;;;;5107791;28;20068;-86
2022/12/01 11:38:23;;;;;;;49.95;25.85;;;7.00;99.90;;;;;;5107346;28;20477;-84
2022/12/01 11:40:57;;;;;;;53.40;26.80;;;7.00;99.90;;;;;;5089671;28;20040;-84
2022/12/01 11:43:33;;;;;;;50.47;25.95;;;7.10;99.90;;;;;;5106668;28;20043;-84
2022/12/01 11:46:02;;;;;;;49.05;26.48;;;7.00;99.90;;;;;;5105189;27;20048;-84
2022/12/01 11:48:30;;;;;;;52.38;26.73;;;7.10;99.90;;;;;;5107104;28;20088;-85
2022/12/01 11:51:04;;;;;;;51.47;26.60;;;7.10;99.90;;;;;;5089580;28;20044;-85
2022/12/01 11:53:38;;;;;;;50.40;26.55;;;7.10;99.90;;;;;;5107835;28;20035;-85
2022/12/01 11:56:29;;;;;;;49.50;25.27;;;7.20;99.90;;;;;;5106612;28;20043;-84
2022/12/01 11:59:03;;;;;;;54.08;25.77;;;7.20;99.90;;;;;;5106090;27;20048;-85
2022/12/01 12:01:49;;;;;;;53.60;27.80;;;7.20;99.90;;;;;;5107041;28;20413;-86
2022/12/01 12:04:44;;;;;;;46.17;25.20;;;7.20;99.90;;;;;;5107029;28;20055;-84
2022/12/01 12:07:25;;;;;;;50.95;26.92;;;7.20;99.90;;;;;;5106070;28;20083;-85
2022/12/01 12:10:26;;;;;;;51.75;26.27;;;7.10;99.90;;;;;;5099428;28;20094;-85
2022/12/01 12:12:59;;;;;;;52.80;26.58;;;7.10;99.90;;;;;;5107047;28;20481;-84
2022/12/01 12:15:35;;;;;;;44.83;23.95;;;7.10;99.90;;;;;;5107793;28;20126;-85
2022/12/01 12:18:23;;;;;;;45.10;24.58;;;7.10;99.90;;;;;;5106069;28;20043;-84
2022/12/01 12:21:07;;;;;;;47.40;25.70;;;7.10;99.90;;;;;;5106830;28;20087;-86
2022/12/01 12:23:41;;;;;;;46.83;24.52;;;7.10;99.90;;;;;;5104593;28;20122;-85
2022/12/01 12:26:29;;;;;;;45.83;24.40;;;7.10;99.90;;;;;;5104307;28;20055;-85
2022/12/01 12:29:34;;;;;;;49.55;25.75;;;7.00;99.90;;;;;;5103798;28;20097;-87
2022/12/01 12:32:06;;;;;;;55.70;33.03;;;7.00;99.90;;;;;;5088360;28;20444;-86
2022/12/01 12:35:05;;;;;;;54.23;28.03;;;7.00;99.90;;;;;;5107165;28;20044;-85
2022/12/01 12:38:01;;;;;;;50.97;26.17;;;7.00;99.90;;;;;;5108127;28;20131;-86
2022/12/01 12:40:54;;;;;;;46.67;27.08;;;7.00;99.90;;;;;;5106767;28;20876;-85
2022/12/01 12:43:47;;;;;;;49.20;26.90;;;7.00;99.90;;;;;;5089978;28;20089;-85
2022/12/01 12:46:24;;;;;;;89.25;68.38;;;7.00;99.90;;;;;;5105027;28;20452;-86
2022/12/01 12:48:50;;;;;;;50.30;26.98;;;7.90;99.90;;;;;;5103746;28;20036;-85
2022/12/01 12:51:57;;;;;;;52.92;27.00;;;7.00;99.90;;;;;;5097753;28;20051;-85
2022/12/01 12:54:37;;;;;;;54.45;27.88;;;7.10;99.90;;;;;;5088823;28;20104;-85
2022/12/01 12:57:17;;;;;;;40.58;23.35;;;7.10;99.90;;;;;;5088178;28;20043;-85
2022/12/01 13:00:01;;;;;;;44.38;25.75;;;7.10;99.90;;;;;;5106868;28;20060;-84